createdAt,value
2022-09-04T00:00:33.220Z,16.02
2022-09-04T00:03:41.739Z,15.27
2022-09-04T00:06:15.746Z,14.70
2022-09-04T00:08:54.629Z,17.38
2022-09-04T00:11:52.863Z,15.70
2022-09-04T00:14:37.857Z,16.40
2022-09-04T00:17:29.052Z,14.48
2022-09-04T00:20:01.542Z,17.15
2022-09-04T00:22:39.736Z,17.38
2022-09-04T00:25:29.745Z,20.67
2022-09-04T00:28:16.547Z,18.33
2022-09-04T00:30:55.187Z,20.88
2022-09-04T00:33:47.162Z,25.73
2022-09-04T00:36:15.659Z,25.48
2022-09-04T00:38:47.847Z,25.35
2022-09-04T00:41:50.997Z,25.23
2022-09-04T00:44:33.033Z,25.60
2022-09-04T00:47:31.870Z,25.48
2022-09-04T00:50:24.043Z,23.65
2022-09-04T00:52:58.377Z,23.77
2022-09-04T00:55:56.519Z,24.88
2022-09-04T00:58:57.731Z,24.30
2022-09-04T01:01:28.711Z,26.65
2022-09-04T01:04:33.059Z,25.67
2022-09-04T01:07:09.954Z,27.83
2022-09-04T01:09:45.401Z,27.17
2022-09-04T01:15:15.949Z,26.52
2022-09-04T01:18:04.051Z,27.15
2022-09-04T01:20:43.476Z,27.77
2022-09-04T01:23:19.180Z,28.13
2022-09-04T01:25:58.900Z,27.08
2022-09-04T01:29:07.280Z,28.42
2022-09-04T01:31:49.554Z,27.88
2022-09-04T01:34:19.303Z,29.27
2022-09-04T01:37:01.219Z,29.77
2022-09-04T01:39:31.984Z,33.72
2022-09-04T01:42:12.218Z,38.13
2022-09-04T01:44:39.113Z,34.88
2022-09-04T01:47:38.158Z,39.13
2022-09-04T01:50:19.271Z,36.15
2022-09-04T01:52:53.785Z,36.28
2022-09-04T01:55:39.474Z,36.33
2022-09-04T01:58:14.756Z,35.90
2022-09-04T02:00:57.665Z,33.85
2022-09-04T02:03:39.486Z,35.30
2022-09-04T02:06:15.417Z,34.00
2022-09-04T02:09:16.573Z,32.45
2022-09-04T02:11:57.001Z,33.72
2022-09-04T02:14:47.571Z,32.40
2022-09-04T02:17:20.893Z,31.67
2022-09-04T02:20:02.030Z,30.63
2022-09-04T02:22:28.922Z,31.25
2022-09-04T02:25:23.009Z,31.45
2022-09-04T02:28:14.831Z,30.95
2022-09-04T02:30:55.771Z,32.83
2022-09-04T02:34:01.185Z,35.53
2022-09-04T02:36:35.469Z,35.97
2022-09-04T02:39:24.401Z,42.08
2022-09-04T02:42:19.556Z,43.75
2022-09-04T02:45:09.966Z,45.60
2022-09-04T02:47:52.326Z,45.80
2022-09-04T02:50:41.097Z,45.45
2022-09-04T02:53:20.271Z,44.55
2022-09-04T02:56:25.122Z,45.05
2022-09-04T02:59:28.499Z,46.92
2022-09-04T03:02:01.890Z,45.42
2022-09-04T03:04:52.962Z,48.72
2022-09-04T03:07:33.547Z,51.33
2022-09-04T03:10:17.188Z,52.55
2022-09-04T03:13:04.203Z,54.55
2022-09-04T03:15:46.148Z,60.17
2022-09-04T03:18:31.495Z,69.05
2022-09-04T03:21:08.235Z,64.43
2022-09-04T03:24:07.336Z,61.75
2022-09-04T03:26:41.800Z,63.28
2022-09-04T03:29:14.989Z,67.53
2022-09-04T03:32:15.987Z,66.32
2022-09-04T03:35:03.108Z,66.75
2022-09-04T03:37:52.942Z,67.50
2022-09-04T03:40:37.910Z,70.85
2022-09-04T03:43:48.746Z,70.90
2022-09-04T03:46:27.201Z,71.00
2022-09-04T03:49:42.860Z,75.28
2022-09-04T03:52:33.260Z,73.45
2022-09-04T03:55:19.852Z,74.82
2022-09-04T03:58:02.015Z,71.60
2022-09-04T04:00:46.552Z,67.05
2022-09-04T04:03:35.079Z,64.38
2022-09-04T04:06:27.967Z,62.17
2022-09-04T04:09:32.602Z,62.33
2022-09-04T04:12:31.996Z,62.13
2022-09-04T04:15:18.613Z,58.88
2022-09-04T04:17:45.874Z,59.92
2022-09-04T04:20:46.932Z,58.55
2022-09-04T04:23:40.370Z,58.85
2022-09-04T04:26:13.498Z,58.17
2022-09-04T04:28:53.338Z,59.47
2022-09-04T04:31:45.797Z,59.78
2022-09-04T04:34:27.687Z,58.45
2022-09-04T04:41:02.577Z,57.13
2022-09-04T04:43:51.306Z,56.85
2022-09-04T04:46:39.388Z,56.22
2022-09-04T04:49:09.180Z,57.00
2022-09-04T04:52:15.820Z,58.72
2022-09-04T04:55:12.997Z,57.05
2022-09-04T04:58:27.840Z,59.80
2022-09-04T05:01:33.104Z,56.88
2022-09-04T05:04:33.106Z,56.55
2022-09-04T05:08:37.482Z,56.13
2022-09-04T05:11:42.066Z,55.58
2022-09-04T05:14:11.745Z,56.55
2022-09-04T05:16:56.116Z,55.90
2022-09-04T05:19:43.360Z,59.08
2022-09-04T05:22:35.516Z,56.78
2022-09-04T05:25:38.355Z,58.45
2022-09-04T05:28:14.367Z,56.63
2022-09-04T05:30:58.826Z,53.97
2022-09-04T05:34:04.203Z,57.28
2022-09-04T05:37:04.759Z,56.88
2022-09-04T05:39:41.208Z,55.95
2022-09-04T05:42:42.486Z,56.47
2022-09-04T05:45:18.330Z,56.97
2022-09-04T05:48:29.985Z,58.83
2022-09-04T05:51:15.954Z,57.35
2022-09-04T05:56:32.090Z,59.15
2022-09-04T05:59:05.658Z,55.85
2022-09-04T06:01:57.568Z,55.50
2022-09-04T06:04:55.592Z,52.95
2022-09-04T06:07:31.620Z,51.20
2022-09-04T06:10:16.516Z,53.67
2022-09-04T06:13:07.707Z,50.97
2022-09-04T06:16:09.931Z,49.38
2022-09-04T06:18:58.907Z,51.78
2022-09-04T06:21:38.506Z,50.92
2022-09-04T06:24:20.989Z,50.45
2022-09-04T06:27:18.344Z,49.42
2022-09-04T06:29:51.149Z,51.03
2022-09-04T06:32:36.587Z,51.30
2022-09-04T06:35:27.374Z,51.20
2022-09-04T06:38:03.643Z,51.42
2022-09-04T06:40:30.533Z,50.97
2022-09-04T06:43:19.497Z,52.42
2022-09-04T06:46:08.212Z,53.15
2022-09-04T06:48:52.494Z,53.03
2022-09-04T06:51:35.131Z,53.53
2022-09-04T06:54:21.405Z,52.63
2022-09-04T06:57:06.614Z,51.58
2022-09-04T06:59:49.651Z,53.25
2022-09-04T07:02:34.743Z,49.38
2022-09-04T07:05:57.075Z,53.53
2022-09-04T07:08:52.868Z,49.53
2022-09-04T07:11:37.393Z,49.08
2022-09-04T07:14:29.689Z,50.22
2022-09-04T07:17:08.625Z,48.22
2022-09-04T07:19:50.765Z,45.33
2022-09-04T07:22:54.757Z,43.30
2022-09-04T07:25:40.800Z,41.83
2022-09-04T07:28:31.241Z,40.30
2022-09-04T07:31:17.363Z,42.92
2022-09-04T07:33:59.235Z,39.65
2022-09-04T07:36:29.565Z,39.10
2022-09-04T07:39:20.319Z,33.58
2022-09-04T07:41:56.567Z,33.20
2022-09-04T07:44:47.182Z,32.92
2022-09-04T07:47:20.158Z,31.52
2022-09-04T07:49:58.122Z,29.30
2022-09-04T07:52:54.494Z,29.70
2022-09-04T07:55:21.527Z,29.42
2022-09-04T07:57:57.403Z,29.92
2022-09-04T08:00:25.531Z,27.77
2022-09-04T08:03:17.687Z,31.25
2022-09-04T08:06:02.909Z,28.33
2022-09-04T08:08:55.150Z,30.80
2022-09-04T08:12:01.996Z,31.83
2022-09-04T08:14:40.748Z,30.60
2022-09-04T08:17:43.070Z,33.40
2022-09-04T08:20:22.517Z,31.70
2022-09-04T08:23:24.494Z,28.50
2022-09-04T08:26:12.301Z,30.98
2022-09-04T08:28:57.175Z,31.23
2022-09-04T08:32:04.682Z,32.90
2022-09-04T08:34:54.810Z,30.80
2022-09-04T08:37:21.697Z,33.53
2022-09-04T08:40:14.114Z,31.98
2022-09-04T08:43:16.754Z,27.05
2022-09-04T08:45:58.798Z,27.70
2022-09-04T08:48:37.915Z,28.70
2022-09-04T08:51:26.624Z,26.83
2022-09-04T08:54:13.110Z,27.25
2022-09-04T08:57:04.941Z,29.65
2022-09-04T09:00:11.755Z,22.65
2022-09-04T09:03:16.534Z,22.02
2022-09-04T09:06:02.220Z,19.60
2022-09-04T09:08:47.890Z,17.85
2022-09-04T09:11:50.214Z,19.25
2022-09-04T09:14:53.582Z,21.67
2022-09-04T09:17:46.837Z,20.58
2022-09-04T09:20:44.359Z,18.92
2022-09-04T09:23:36.279Z,22.48
2022-09-04T09:26:33.931Z,17.83
2022-09-04T09:29:20.188Z,19.77
2022-09-04T09:32:17.466Z,19.55
2022-09-04T09:35:08.984Z,17.77
2022-09-04T09:37:48.378Z,16.15
2022-09-04T09:40:45.831Z,20.23
2022-09-04T09:43:42.098Z,18.40
2022-09-04T09:46:36.813Z,13.60
2022-09-04T09:49:15.519Z,19.42
2022-09-04T09:52:21.313Z,18.92
2022-09-04T09:54:48.189Z,20.03
2022-09-04T09:57:40.573Z,16.58
2022-09-04T10:00:13.445Z,16.35
2022-09-04T10:03:02.252Z,14.95
2022-09-04T10:06:06.192Z,12.43
2022-09-04T10:09:11.407Z,11.60
2022-09-04T10:11:47.483Z,10.32
2022-09-04T10:14:33.386Z,10.13
2022-09-04T10:17:24.755Z,10.80
2022-09-04T10:19:54.748Z,8.90
2022-09-04T10:23:04.088Z,9.30
2022-09-04T10:26:19.878Z,10.07
2022-09-04T10:29:10.958Z,9.93
2022-09-04T10:31:57.004Z,7.45
2022-09-04T10:34:24.226Z,6.53
2022-09-04T10:37:27.729Z,5.65
2022-09-04T10:40:28.298Z,9.18
2022-09-04T10:43:32.237Z,7.15
2022-09-04T10:46:22.971Z,6.60
2022-09-04T10:49:12.255Z,6.22
2022-09-04T10:52:09.079Z,5.38
2022-09-04T10:54:57.020Z,6.15
2022-09-04T10:57:45.520Z,7.20
2022-09-04T11:00:21.302Z,7.95
2022-09-04T11:03:15.466Z,6.65
2022-09-04T11:06:03.929Z,6.53
2022-09-04T11:09:00.622Z,7.25
2022-09-04T11:11:42.639Z,6.40
2022-09-04T11:14:44.775Z,6.78
2022-09-04T11:17:32.061Z,6.25
2022-09-04T11:20:02.222Z,5.32
2022-09-04T11:22:56.871Z,4.70
2022-09-04T11:25:42.750Z,4.32
2022-09-04T11:28:33.469Z,3.55
2022-09-04T11:31:20.861Z,3.80
2022-09-04T11:34:10.176Z,3.90
2022-09-04T11:37:07.213Z,4.07
2022-09-04T11:39:58.556Z,2.90
2022-09-04T11:43:06.539Z,3.33
2022-09-04T11:46:09.088Z,2.95
2022-09-04T11:49:05.263Z,3.17
2022-09-04T11:54:52.975Z,2.97
2022-09-04T11:57:49.165Z,3.00
2022-09-04T12:00:17.621Z,2.65
2022-09-04T12:03:02.214Z,2.38
2022-09-04T12:05:47.409Z,3.10
2022-09-04T12:08:35.951Z,3.38
2022-09-04T12:11:19.201Z,2.80
2022-09-04T12:14:02.118Z,2.85
2022-09-04T12:17:01.619Z,3.45
2022-09-04T12:19:50.524Z,2.20
2022-09-04T12:22:42.375Z,2.70
2022-09-04T12:25:28.181Z,3.13
2022-09-04T12:28:26.677Z,2.50
2022-09-04T12:31:19.779Z,2.88
2022-09-04T12:34:08.498Z,2.38
2022-09-04T12:36:59.385Z,2.53
2022-09-04T12:39:50.267Z,2.55
2022-09-04T12:42:28.543Z,3.03
2022-09-04T12:45:21.770Z,2.75
2022-09-04T12:48:03.816Z,2.67
2022-09-04T12:50:39.850Z,3.40
2022-09-04T12:53:15.446Z,2.78
2022-09-04T12:55:49.198Z,3.08
2022-09-04T12:58:35.441Z,3.08
2022-09-04T13:01:10.473Z,2.88
2022-09-04T13:03:51.121Z,2.95
2022-09-04T13:06:35.757Z,3.53
2022-09-04T13:09:17.904Z,4.78
2022-09-04T13:12:06.883Z,3.28
2022-09-04T13:15:03.192Z,2.92
2022-09-04T13:17:43.511Z,2.88
2022-09-04T13:20:49.278Z,3.42
2022-09-04T13:23:27.780Z,3.30
2022-09-04T13:26:24.429Z,3.58
2022-09-04T13:29:16.292Z,3.42
2022-09-04T13:31:56.151Z,3.45
2022-09-04T13:34:34.189Z,7.32
2022-09-04T13:37:24.647Z,7.78
2022-09-04T13:40:23.951Z,8.75
2022-09-04T13:43:09.107Z,6.93
2022-09-04T13:45:53.574Z,7.45
2022-09-04T13:48:26.360Z,8.65
2022-09-04T13:50:57.985Z,9.88
2022-09-04T13:53:31.268Z,15.48
2022-09-04T13:56:06.282Z,22.33
2022-09-04T13:58:44.310Z,21.65
2022-09-04T14:01:17.306Z,22.52
2022-09-04T14:04:04.863Z,23.63
2022-09-04T14:06:35.696Z,29.33
2022-09-04T14:09:04.645Z,26.90
2022-09-04T14:11:47.247Z,29.67
2022-09-04T14:14:41.178Z,27.75
2022-09-04T14:17:09.158Z,30.48
2022-09-04T14:19:48.365Z,31.15
2022-09-04T14:22:25.229Z,30.48
2022-09-04T14:25:24.240Z,31.45
2022-09-04T14:28:20.420Z,33.67
2022-09-04T14:31:33.962Z,36.45
2022-09-04T14:34:17.172Z,32.92
2022-09-04T14:37:10.306Z,34.28
2022-09-04T14:39:45.625Z,34.03
2022-09-04T14:45:35.895Z,31.70
2022-09-04T14:48:12.538Z,37.10
2022-09-04T14:50:55.935Z,37.83
2022-09-04T14:53:28.218Z,37.47
2022-09-04T14:56:10.398Z,38.20
2022-09-04T14:58:50.716Z,34.95
2022-09-04T15:01:20.182Z,35.53
2022-09-04T15:04:14.609Z,35.10
2022-09-04T15:07:10.738Z,40.22
2022-09-04T15:09:43.323Z,41.17
2022-09-04T15:12:43.661Z,41.75
2022-09-04T15:15:24.298Z,41.83
2022-09-04T15:18:04.225Z,41.47
2022-09-04T15:20:36.080Z,41.00
2022-09-04T15:23:22.394Z,42.08
2022-09-04T15:25:59.225Z,39.22
2022-09-04T15:28:47.685Z,41.65
2022-09-04T15:31:33.500Z,39.63
2022-09-04T15:34:03.934Z,39.90
2022-09-04T15:36:31.851Z,40.97
2022-09-04T15:39:01.991Z,40.10
2022-09-04T15:41:50.561Z,40.05
2022-09-04T15:44:33.691Z,41.63
2022-09-04T15:47:17.121Z,39.42
2022-09-04T15:49:55.567Z,41.38
2022-09-04T15:52:24.273Z,43.13
2022-09-04T15:54:58.856Z,43.03
2022-09-04T15:57:46.905Z,40.23
2022-09-04T16:00:16.223Z,40.85
2022-09-04T16:03:02.279Z,40.45
2022-09-04T16:05:41.567Z,38.70
2022-09-04T16:08:36.607Z,42.40
2022-09-04T16:11:11.823Z,41.08
2022-09-04T16:13:56.998Z,40.08
2022-09-04T16:16:34.941Z,43.90
2022-09-04T16:19:08.290Z,40.20
2022-09-04T16:21:55.543Z,41.35
2022-09-04T16:24:35.644Z,41.85
2022-09-04T16:27:11.283Z,42.28
2022-09-04T16:29:51.134Z,41.15
2022-09-04T16:32:24.389Z,41.13
2022-09-04T16:34:51.290Z,41.35
2022-09-04T16:37:40.026Z,41.72
2022-09-04T16:40:29.612Z,39.58
2022-09-04T16:43:16.359Z,42.40
2022-09-04T16:46:03.588Z,40.78
2022-09-04T16:48:36.288Z,41.38
2022-09-04T16:51:39.533Z,43.33
2022-09-04T16:54:19.619Z,43.30
2022-09-04T16:57:13.069Z,44.50
2022-09-04T16:59:48.681Z,43.72
2022-09-04T17:02:32.221Z,47.05
2022-09-04T17:05:39.977Z,46.10
2022-09-04T17:08:19.646Z,46.17
2022-09-04T17:10:57.951Z,45.90
2022-09-04T17:13:52.268Z,46.92
2022-09-04T17:16:24.332Z,48.63
2022-09-04T17:18:54.755Z,44.75
2022-09-04T17:28:31.012Z,46.28
2022-09-04T17:29:02.193Z,46.55
2022-09-04T17:29:16.514Z,48.55
2022-09-04T17:31:23.499Z,46.80
2022-09-04T17:40:33.087Z,48.13
2022-09-04T17:40:43.404Z,43.30
2022-09-04T17:41:40.062Z,41.00
2022-09-04T17:44:02.402Z,41.38
2022-09-04T17:46:36.796Z,39.25
2022-09-04T17:49:29.409Z,39.43
2022-09-04T17:52:06.319Z,38.65
2022-09-04T17:54:39.976Z,39.20
2022-09-04T17:57:13.443Z,38.47
2022-09-04T17:59:56.826Z,40.45
2022-09-04T18:02:52.952Z,40.58
2022-09-04T18:08:10.587Z,34.90
2022-09-04T18:11:17.981Z,34.33
2022-09-04T18:13:54.053Z,30.90
2022-09-04T18:16:36.666Z,28.10
2022-09-04T18:19:26.908Z,25.27
2022-09-04T18:22:26.972Z,23.02
2022-09-04T18:25:16.085Z,23.02
2022-09-04T18:28:11.427Z,22.65
2022-09-04T18:37:13.235Z,23.08
2022-09-04T18:37:17.713Z,26.10
2022-09-04T18:37:47.366Z,25.77
2022-09-04T18:44:39.083Z,31.02
2022-09-04T18:50:24.179Z,34.92
2022-09-04T18:50:28.111Z,38.85
2022-09-04T18:50:28.927Z,38.78
2022-09-04T18:52:21.471Z,40.88
2022-09-04T18:54:55.172Z,40.40
2022-09-04T18:57:32.445Z,41.35
2022-09-04T19:00:09.136Z,41.67
2022-09-04T19:03:11.473Z,42.85
2022-09-04T19:05:44.750Z,42.97
2022-09-04T19:08:21.869Z,43.58
2022-09-04T19:10:59.126Z,42.67
2022-09-04T19:13:36.113Z,43.65
2022-09-04T19:16:13.833Z,41.95
2022-09-04T19:18:51.217Z,44.75
2022-09-04T19:21:35.854Z,42.15
2022-09-04T19:24:16.498Z,42.63
2022-09-04T19:26:55.651Z,43.35
2022-09-04T19:29:27.092Z,45.97
2022-09-04T19:32:09.223Z,47.00
2022-09-04T19:34:59.829Z,41.65
2022-09-04T19:39:13.271Z,42.88
2022-09-04T19:45:57.587Z,42.50
2022-09-04T19:46:01.429Z,40.65
2022-09-04T19:46:50.991Z,41.72
2022-09-04T19:51:28.765Z,40.38
2022-09-04T19:53:33.359Z,45.30
2022-09-04T19:55:32.479Z,44.50
2022-09-04T19:58:15.206Z,46.28
2022-09-04T20:00:55.887Z,48.45
2022-09-04T20:03:30.957Z,50.15
2022-09-04T20:06:21.487Z,52.35
2022-09-04T20:08:55.047Z,53.53
2022-09-04T20:12:06.790Z,50.83
2022-09-04T20:15:11.809Z,51.20
2022-09-04T20:17:47.694Z,46.05
2022-09-04T20:20:28.249Z,44.67
2022-09-04T20:23:33.803Z,44.17
2022-09-04T20:26:26.673Z,41.78
2022-09-04T20:29:14.864Z,38.67
2022-09-04T20:31:56.213Z,34.72
2022-09-04T20:34:39.944Z,29.80
2022-09-04T20:37:25.234Z,29.80
2022-09-04T20:40:19.169Z,28.48
2022-09-04T20:42:56.647Z,26.70
2022-09-04T20:47:20.339Z,28.60
2022-09-04T20:52:52.987Z,26.05
2022-09-04T20:53:05.303Z,25.80
2022-09-04T20:54:32.516Z,26.50
2022-09-04T21:01:41.290Z,24.60
2022-09-04T21:03:06.683Z,26.70
2022-09-04T21:03:30.681Z,25.08
2022-09-04T21:06:32.938Z,22.63
2022-09-04T21:09:26.842Z,22.83
2022-09-04T21:12:02.594Z,21.40
2022-09-04T21:14:45.792Z,20.70
2022-09-04T21:17:40.653Z,20.65
2022-09-04T21:20:26.345Z,19.15
2022-09-04T21:23:36.815Z,18.33
2022-09-04T21:26:09.970Z,17.23
2022-09-04T21:28:55.153Z,17.15
2022-09-04T21:32:00.584Z,18.73
2022-09-04T21:34:54.462Z,20.40
2022-09-04T21:37:24.265Z,24.73
2022-09-04T21:40:50.281Z,27.60
2022-09-04T21:43:34.077Z,31.63
2022-09-04T21:46:28.868Z,32.83
2022-09-04T21:49:07.879Z,36.17
2022-09-04T21:51:38.287Z,36.50
2022-09-04T21:54:38.105Z,40.92
2022-09-04T22:02:35.994Z,37.75
2022-09-04T22:02:45.890Z,38.42
2022-09-04T22:03:42.844Z,41.60
2022-09-04T22:06:15.728Z,44.65
2022-09-04T22:12:51.560Z,44.50
2022-09-04T22:13:42.343Z,44.00
2022-09-04T22:15:01.577Z,44.05
2022-09-04T22:17:53.483Z,43.63
2022-09-04T22:20:45.444Z,44.03
2022-09-04T22:23:30.687Z,43.65
2022-09-04T22:26:35.388Z,44.33
2022-09-04T22:29:08.196Z,41.67
2022-09-04T22:31:42.516Z,41.30
2022-09-04T22:34:26.086Z,41.45
2022-09-04T22:37:11.212Z,39.05
2022-09-04T22:40:08.769Z,40.73
2022-09-04T22:43:11.642Z,39.85
2022-09-04T22:45:49.989Z,39.30
2022-09-04T22:49:11.774Z,38.40
2022-09-04T22:51:57.525Z,35.33
2022-09-04T22:54:47.732Z,32.60
2022-09-04T22:57:44.755Z,35.35
2022-09-04T23:00:21.124Z,31.73
2022-09-04T23:03:20.319Z,31.95
2022-09-04T23:09:10.773Z,31.45
2022-09-04T23:13:45.085Z,30.23
2022-09-04T23:13:58.087Z,26.08
2022-09-04T23:15:32.271Z,22.05
2022-09-04T23:19:10.373Z,18.60
2022-09-04T23:26:32.678Z,14.75
2022-09-04T23:26:45.331Z,11.75
2022-09-04T23:27:52.020Z,9.77
2022-09-04T23:30:25.567Z,8.30
2022-09-04T23:33:27.470Z,7.55
2022-09-04T23:36:03.295Z,7.18
2022-09-04T23:38:49.763Z,6.88
2022-09-04T23:41:36.159Z,6.82
2022-09-04T23:44:35.624Z,6.35
2022-09-04T23:47:24.727Z,5.88
2022-09-04T23:50:24.466Z,6.35
2022-09-04T23:53:35.142Z,5.20
2022-09-04T23:56:17.592Z,7.75
2022-09-04T23:59:18.934Z,7.93
